Time,TemperatureF,DewpointF,PressureIn,WindDirection,WindDirectionDegrees,WindSpeedMPH,WindSpeedGustMPH,Humidity,HourlyPrecipIn,Conditions,Clouds,dailyrainin,SoftwareType,DateUTC
2014-01-19 00:54:00,46.6,33.0,30.15,WNW,286,0.0,0.0,59,0.00,,FEW250,0.00,VWS V14.00,2014-01-19 05:54:00,
2014-01-19 01:54:00,46.5,33.0,30.16,WNW,292,0.0,4.0,59,0.00,,FEW250,0.00,VWS V14.00,2014-01-19 06:54:00,
2014-01-19 02:54:00,44.9,31.5,30.15,WNW,292,1.0,5.0,59,0.00,,FEW250,0.00,VWS V14.00,2014-01-19 07:54:00,
2014-01-19 03:54:00,43.4,30.9,30.16,NW,325,0.0,4.0,61,0.00,,FEW250,0.00,VWS V14.00,2014-01-19 08:54:00,
2014-01-19 04:54:00,42.5,31.6,30.16,NW,323,0.0,3.0,65,0.00,,FEW250,0.00,VWS V14.00,2014-01-19 09:54:00,
2014-01-19 05:54:00,41.7,31.2,30.17,NW,323,0.0,0.0,66,0.00,,FEW250,0.00,VWS V14.00,2014-01-19 10:54:00,
2014-01-19 06:54:00,41.9,31.0,30.19,NW,312,0.0,4.0,65,0.00,,FEW250,0.00,VWS V14.00,2014-01-19 11:54:00,
2014-01-19 07:54:00,43.2,33.0,30.19,NW,312,0.0,2.0,67,0.00,,FEW250,0.00,VWS V14.00,2014-01-19 12:54:00,
2014-01-19 08:54:00,47.8,34.6,30.22,WNW,298,1.0,7.0,60,0.00,,CLR,0.00,VWS V14.00,2014-01-19 13:54:00,
2014-01-19 09:54:00,53.3,35.7,30.25,WNW,297,8.0,12.0,51,0.00,,CLR,0.00,VWS V14.00,2014-01-19 14:54:00,
2014-01-19 10:54:00,56.7,35.6,30.23,WNW,282,0.0,10.0,45,0.00,,CLR,0.00,VWS V14.00,2014-01-19 15:54:00,
2014-01-19 11:54:00,61.0,35.2,30.20,WNW,283,9.0,11.0,38,0.00,,CLR,0.00,VWS V14.00,2014-01-19 16:54:00,
2014-01-19 12:54:00,62.6,36.7,30.18,WSW,257,3.0,17.0,38,0.00,,CLR,0.00,VWS V14.00,2014-01-19 17:54:00,
2014-01-19 13:54:00,65.1,32.9,30.15,WNW,290,5.0,16.0,30,0.00,,CLR,0.00,VWS V14.00,2014-01-19 18:54:00,
2014-01-19 14:54:00,67.6,32.5,30.13,WNW,298,5.0,12.0,27,0.00,,SCT250,0.00,VWS V14.00,2014-01-19 19:54:00,
2014-01-19 15:54:00,67.2,36.4,30.12,WNW,290,1.0,11.0,32,0.00,,FEW250,0.00,VWS V14.00,2014-01-19 20:54:00,
2014-01-19 16:54:00,67.3,40.8,30.12,NW,324,0.0,7.0,38,0.00,,FEW250,0.00,VWS V14.00,2014-01-19 21:54:00,
2014-01-19 17:54:00,63.8,45.3,30.13,North,350,0.0,6.0,51,0.00,,FEW080,0.00,VWS V14.00,2014-01-19 22:54:00,
2014-01-19 18:54:00,60.0,46.5,30.12,North,350,0.0,0.0,61,0.00,,BKN075,0.00,VWS V14.00,2014-01-19 23:54:00,
2014-01-19 19:54:00,59.5,46.9,30.15,North,350,0.0,0.0,63,0.00,,BKN070,0.00,VWS V14.00,2014-01-20 00:54:00,
2014-01-19 20:54:00,56.1,46.1,30.15,North,350,0.0,0.0,69,0.00,,BKN075,0.00,VWS V14.00,2014-01-20 01:54:00,
2014-01-19 21:54:00,56.9,45.7,30.17,North,350,0.0,1.0,66,0.00,,FEW075,0.00,VWS V14.00,2014-01-20 02:54:00,
2014-01-19 22:54:00,55.8,46.9,30.15,NNW,347,0.0,1.0,72,0.00,,FEW065,0.00,VWS V14.00,2014-01-20 03:54:00,
2014-01-19 23:55:00,55.5,47.7,30.12,West,265,0.0,3.0,75,0.00,,FEW060,0.00,VWS V14.00,2014-01-20 04:55:00,